Startpagina
METAR-TAF:

METAR-TAF

Vliegvelden :

Flughafen Dortmund

Dortmund, Duitsland

breedte: 51-31N, lengte: 007-37E, hoogte: 127 m

Actueel weer

Dit bericht is 19 minuten geleden gemaakt, om 08:20 UTC
Wind 6 kt uit het zuidzuidoosten
Temperatuur 10°C
Vochtigheid 76%
Druk 1023 hPa
Zicht 10 km of meer
geen wolken onder 1500 m en geen cumulonimbus

METAR: EDLW 180820Z 15006KT CAVOK 10/06 Q1023

Tijdstip: 10:39 (08:39 UTC)

Verwachting

Dit bericht is 3 uur en het 39 minuten geleden gemaakt, om 05:00 UTC
Verwachting geldig van 18 om 06 UTC tot 19 om 06 UTC
Wind 9 kt uit het zuiden
Zicht 10 km of meer
geen wolken onder 1500 m en geen cumulonimbus

TAF: EDLW 180500Z 1806/1906 18009KT CAVOK

Waarnemingen en weersverwachtingen van meer dan 4000 vliegvelden (METAR en TAF).

De beschikbare stations zijn de gele en rode punten op de kaart.

Ga met uw muis naar het station om de naam te zien.

Klik dan om waarnemingen en weersverwachtingen te zien.

kaart wijzigen: klik op de groene knoppen met een zwart kruis om in te zoomen, op de groene knop met een streepje om uit te zoomen of op de groene pijlen voor aangrenzende kaarten.


METAR-TAF: